Main page
METAR-TAF:

METAR-TAF

Airports :

Koumac Airport

Koumac, New Caledonia

latitude: 20-34S, longitude: 164-17E, elevation: 23 m

METAR: missing

Time: 03:11 (16:11 UTC)

Forecast

The report was made 11 hours and 11 minutes ago, at 05:00 UTC
Forecast valid from 28 at 06 UTC to 29 at 06 UTC
Wind 10 kt from the South/Southwest
Visibility 10 km or more
Scattered clouds at a height of 3400 ft
Becoming
from 28 at 06 UTC to 28 at 08 UTC
Wind 2 kt from variable directions
Becoming
from 28 at 23 UTC to 29 at 01 UTC
Wind 10 kt from the South/Southwest
Probability 40% :
Temporary
from 29 at 03 UTC to 29 at 06 UTC
rain showers

TAF: NWWK 280500Z 2806/2906 21010KT 9999 SCT034 BECMG 2806/2808 VRB02KT BECMG 2823/2901 21010KT PROB40 TEMPO 2903/2906 SHRA

Weather observations and forecasts of more than 4000 airports (METAR and TAF reports).

The available stations are represented by yellow and red dots on the map.

Hover mouse over dot to see the name of the station.

Then click to see weather observations and forecasts.

To change the map : click on the green buttons with a black cross to zoom in, on the green button with a dash to zoom out, or on the green arrows for adjacent maps.


METAR-TAF: